sensor_id;sensor_type;location;lat;lon;timestamp;pressure;altitude;pressure_sealevel;temperature;humidity
49571;BME280;36970;39.352;20.286;2022-10-16T00:06:48;99978.41;;;16.14;100.00
49571;BME280;36970;39.352;20.286;2022-10-16T00:36:50;99989.88;;;16.42;100.00
49571;BME280;36970;39.352;20.286;2022-10-16T01:07:00;99973.66;;;16.46;100.00
49571;BME280;36970;39.352;20.286;2022-10-16T01:37:12;99963.81;;;15.74;100.00
49571;BME280;36970;39.352;20.286;2022-10-16T02:07:16;99967.66;;;15.41;99.44
49571;BME280;36970;39.352;20.286;2022-10-16T02:37:19;99977.06;;;15.34;85.55
49571;BME280;36970;39.352;20.286;2022-10-16T03:07:21;99970.72;;;15.75;76.56
49571;BME280;36970;39.352;20.286;2022-10-16T03:37:24;99988.66;;;15.41;75.86
49571;BME280;36970;39.352;20.286;2022-10-16T04:07:26;100002.06;;;15.67;74.16
49571;BME280;36970;39.352;20.286;2022-10-16T04:37:28;100040.47;;;13.86;100.00
49571;BME280;36970;39.352;20.286;2022-10-16T05:07:31;100053.97;;;14.84;83.89
49571;BME280;36970;39.352;20.286;2022-10-16T05:37:33;100072.06;;;16.04;67.73
49571;BME280;36970;39.352;20.286;2022-10-16T06:07:36;100112.75;;;17.03;63.40
49571;BME280;36970;39.352;20.286;2022-10-16T06:37:40;100150.09;;;17.80;70.57
49571;BME280;36970;39.352;20.286;2022-10-16T07:07:43;100171.28;;;18.32;86.59
49571;BME280;36970;39.352;20.286;2022-10-16T07:37:46;100198.47;;;18.23;92.65
49571;BME280;36970;39.352;20.286;2022-10-16T08:07:50;100220.34;;;18.33;76.95
49571;BME280;36970;39.352;20.286;2022-10-16T08:37:53;100223.44;;;18.81;85.15
49571;BME280;36970;39.352;20.286;2022-10-16T09:08:03;100235.09;;;18.96;90.85
49571;BME280;36970;39.352;20.286;2022-10-16T09:38:24;100246.03;;;19.44;90.85
49571;BME280;36970;39.352;20.286;2022-10-16T10:08:27;100239.22;;;20.00;82.18
49571;BME280;36970;39.352;20.286;2022-10-16T10:38:39;100184.75;;;20.73;73.16
49571;BME280;36970;39.352;20.286;2022-10-16T11:08:48;100188.25;;;21.68;66.01
49571;BME280;36970;39.352;20.286;2022-10-16T11:38:57;100158.88;;;22.16;68.32
49571;BME280;36970;39.352;20.286;2022-10-16T12:09:01;100149.56;;;23.02;61.19
49571;BME280;36970;39.352;20.286;2022-10-16T12:39:04;100145.34;;;22.56;62.98
49571;BME280;36970;39.352;20.286;2022-10-16T13:09:16;100133.09;;;23.79;63.26
49571;BME280;36970;39.352;20.286;2022-10-16T13:39:23;100142.56;;;23.67;64.12
49571;BME280;36970;39.352;20.286;2022-10-16T14:09:27;100162.53;;;23.63;70.29
49571;BME280;36970;39.352;20.286;2022-10-16T14:39:30;100166.94;;;24.77;59.33
49571;BME280;36970;39.352;20.286;2022-10-16T15:09:33;100195.28;;;24.28;59.21
49571;BME280;36970;39.352;20.286;2022-10-16T15:39:35;100227.34;;;21.50;72.27
49571;BME280;36970;39.352;20.286;2022-10-16T16:09:38;100257.09;;;17.71;100.00
49571;BME280;36970;39.352;20.286;2022-10-16T16:39:40;100280.22;;;17.77;100.00
49571;BME280;36970;39.352;20.286;2022-10-16T17:09:43;100314.78;;;16.98;100.00
49571;BME280;36970;39.352;20.286;2022-10-16T17:39:45;100332.63;;;17.61;100.00
49571;BME280;36970;39.352;20.286;2022-10-16T18:09:48;100358.63;;;16.88;100.00
49571;BME280;36970;39.352;20.286;2022-10-16T18:39:51;100375.97;;;15.71;100.00
49571;BME280;36970;39.352;20.286;2022-10-16T19:09:53;100413.44;;;15.41;100.00
49571;BME280;36970;39.352;20.286;2022-10-16T19:39:55;100433.38;;;16.05;100.00
49571;BME280;36970;39.352;20.286;2022-10-16T20:09:58;100471.75;;;15.34;100.00
49571;BME280;36970;39.352;20.286;2022-10-16T20:40:00;100494.72;;;15.30;100.00
49571;BME280;36970;39.352;20.286;2022-10-16T21:10:03;100509.63;;;15.19;100.00
49571;BME280;36970;39.352;20.286;2022-10-16T21:40:07;100521.44;;;15.24;100.00
49571;BME280;36970;39.352;20.286;2022-10-16T22:10:10;100534.16;;;15.82;100.00
49571;BME280;36970;39.352;20.286;2022-10-16T22:40:13;100547.63;;;16.09;100.00
49571;BME280;36970;39.352;20.286;2022-10-16T23:10:15;100548.63;;;14.90;100.00
49571;BME280;36970;39.352;20.286;2022-10-16T23:40:18;100533.84;;;14.67;100.00
